• Join FlightAware (Why Join?)
  • Login
  • US Flag 
04:12AM EDT


 

Airport Tracker/Info


-or-


 

Live Flight TrackerFlight Track Log ✈ N5FG ✈ 30-Apr-2013 ✈ KASX - KUGN

Flight Track Log - Related Links

Times and Time Zones

All times are in EDT time to prevent confusion due to time zone crossing. See the N5FG flight status page for this flight to view local times or setup timezone preferences in your user account.

Time Position Orientation Groundspeed Altitude Reporting Facility
EDT Latitude Longitude Course Direction KTS MPH feet Rate Location/Type
11:29AM 46.4406 -90.8144 145° Southeast 119 137 4,300  Level Minneapolis Center
11:30AM 46.4128 -90.7878 146° Southeast 120 138 5,000 780 Climbing Minneapolis Center
11:31AM 46.3781 -90.7556 147° Southeast 121 139 6,000 720 Climbing Minneapolis Center
11:32AM 46.3494 -90.7258 144° Southeast 124 143 6,500 420 Climbing Minneapolis Center
11:33AM 46.3164 -90.6950 147° Southeast 130 150 6,900 180 Climbing Minneapolis Center
11:34AM 46.3112 -90.7295 145° Southeast  Level Estimated
11:34AM 46.2769 -90.6622 150° Southeast 146 168 6,900  Level Minneapolis Center
11:35AM 46.2417 -90.6267 145° Southeast 152 175 6,900  Level Minneapolis Center
11:36AM 46.2017 -90.5914 149° Southeast 159 183 6,900 60 Level Minneapolis Center
11:37AM 46.1628 -90.5550 147° Southeast 163 188 7,100 60 Climbing Minneapolis Center
11:38AM 46.1253 -90.5200 147° Southeast 163 188 7,100  Level Minneapolis Center
11:39AM 46.0894 -90.4836 145° Southeast 161 185 7,100  Level Minneapolis Center
11:40AM 46.0419 -90.4414 148° Southeast 163 188 7,100  Level Minneapolis Center
11:41AM 46.0069 -90.4064 145° Southeast 160 184 7,100  Level Minneapolis Center
11:42AM 45.9678 -90.3714 148° Southeast 162 186 7,100  Level Minneapolis Center
11:43AM 45.9333 -90.3383 146° Southeast 158 182 7,100  Level Minneapolis Center
11:44AM 45.8953 -90.3039 148° Southeast 158 182 7,100  Level Minneapolis Center
11:45AM 45.8581 -90.2689 147° Southeast 159 183 7,100  Level Minneapolis Center
11:46AM 45.8197 -90.2336 147° Southeast 161 185 7,100  Level Minneapolis Center
11:47AM 45.7744 -90.1917 147° Southeast 162 186 7,100  Level Minneapolis Center
11:48AM 45.7372 -90.1569 147° Southeast 162 186 7,100  Level Minneapolis Center
11:49AM 45.7000 -90.1222 147° Southeast 161 185 7,100  Level Minneapolis Center
11:50AM 45.6625 -90.0878 147° Southeast 160 184 7,100  Level Minneapolis Center
11:51AM 45.6253 -90.0542 148° Southeast 160 184 7,100  Level Minneapolis Center
11:52AM 45.5878 -90.0217 149° Southeast 159 183 7,100  Level Minneapolis Center
11:53AM 45.5503 -89.9881 148° Southeast 159 183 7,100  Level Minneapolis Center
11:54AM 45.5064 -89.9453 146° Southeast 159 183 7,100  Level Minneapolis Center
11:55AM 45.4692 -89.9106 147° Southeast 159 183 7,100  Level Minneapolis Center
11:56AM 45.4319 -89.8769 148° Southeast 159 183 7,100  Level Minneapolis Center
11:57AM 45.3944 -89.8439 148° Southeast 159 183 7,100  Level Minneapolis Center
11:58AM 45.3569 -89.8100 148° Southeast 159 183 7,200  Climbing Minneapolis Center
11:59AM 45.3175 -89.7758 149° Southeast 162 186 7,200  Level Minneapolis Center
12:00PM 45.2792 -89.7417 148° Southeast 163 188 7,200  Level Minneapolis Center
12:01PM 45.2317 -89.6983 147° Southeast 166 191 7,200  Level Minneapolis Center
12:02PM 45.1908 -89.6600 147° Southeast 171 197 7,200 -60 Level Minneapolis Center
12:04PM 45.1494 -89.6239 148° Southeast 175 201 7,100 -60 Descending Minneapolis Center
12:05PM 45.1019 -89.5797 147° Southeast 172 198 7,100  Level Minneapolis Center
12:06PM 45.0564 -89.5439 151° Southeast 175 201 7,200  Climbing Minneapolis Center
12:07PM 45.0133 -89.5044 147° Southeast 176 203 7,200 -60 Level Minneapolis Center
12:08PM 44.9703 -89.4644 147° Southeast 178 205 7,100  Descending Minneapolis Center
12:09PM 44.9314 -89.4300 148° Southeast 173 199 7,200 -60 Climbing Minneapolis Center
12:10PM 44.8878 -89.3903 147° Southeast 172 198 7,000 -120 Descending Minneapolis Center
12:11PM 44.8442 -89.3492 146° Southeast 178 205 7,000  Level Minneapolis Center
12:12PM 44.8022 -89.3153 150° Southeast 174 200 7,000  Level Minneapolis Center
12:13PM 44.7697 -89.2875 149° Southeast 169 194 7,000  Level Minneapolis Center
12:14PM 44.7197 -89.2433 148° Southeast 176 203 7,000  Level Minneapolis Center
12:15PM 44.6769 -89.2044 147° Southeast 177 204 7,100  Climbing Minneapolis Center
12:16PM 44.6342 -89.1661 147° Southeast 173 199 7,000 -60 Descending Minneapolis Center
12:17PM 44.5917 -89.1289 148° Southeast 172 198 7,000  Level Minneapolis Center
12:18PM 44.5528 -89.0936 147° Southeast 172 198 7,000  Level Minneapolis Center
12:19PM 44.5106 -89.0578 149° Southeast 170 196 7,000 60 Level Minneapolis Center
12:20PM 44.4692 -89.0175 145° Southeast 176 203 7,200 60 Climbing Minneapolis Center
12:21PM 44.4283 -88.9808 147° Southeast 177 204 7,200  Level Minneapolis Center
12:22PM 44.3875 -88.9456 148° Southeast 174 200 7,200  Level Minneapolis Center
12:23PM 44.3478 -88.9086 146° Southeast 172 198 7,200 -60 Level Minneapolis Center
12:24PM 44.3081 -88.8739 148° Southeast 170 196 7,100 -60 Descending Minneapolis Center
12:25PM 44.2614 -88.8333 148° Southeast 169 194 7,100  Level Minneapolis Center
12:26PM 44.2222 -88.7994 148° Southeast 167 192 7,100  Level Minneapolis Center
12:27PM 44.1833 -88.7661 148° Southeast 166 191 7,100  Level Minneapolis Center
12:28PM 44.1453 -88.7339 149° Southeast 162 186 7,100  Level Minneapolis Center
12:29PM 44.1075 -88.7000 147° Southeast 162 186 7,100  Level Minneapolis Center
12:30PM 44.0686 -88.6669 149° Southeast 162 186 7,100  Level Minneapolis Center
12:31PM 44.0314 -88.6347 148° Southeast 160 184 7,100  Level Minneapolis Center
12:32PM 43.9883 -88.5983 149° Southeast 157 181 7,100  Level Minneapolis Center
12:33PM 43.9519 -88.5681 149° Southeast 154 177 7,100  Level Minneapolis Center
12:35PM 43.9150 -88.5367 149° Southeast 155 178 7,100  Level Minneapolis Center
12:36PM 43.8786 -88.5053 148° Southeast 154 177 7,100  Level Minneapolis Center
12:37PM 43.8414 -88.4742 149° Southeast 155 178 7,100  Level Minneapolis Center
12:38PM 43.8039 -88.4417 148° Southeast 156 180 7,100  Level Minneapolis Center
12:39PM 43.7667 -88.4111 149° Southeast 156 180 7,100  Level Minneapolis Center
12:40PM 43.7225 -88.3739 149° Southeast 157 181 7,100  Level Minneapolis Center
12:41PM 43.6839 -88.3419 149° Southeast 159 183 7,100  Level Minneapolis Center
12:42PM 43.6442 -88.3086 149° Southeast 163 188 7,100  Level Minneapolis Center
12:43PM 43.6031 -88.2758 150° Southeast 167 192 7,100  Level Chicago Center
12:44PM 43.5622 -88.2406 148° Southeast 171 197 7,100  Level Chicago Center